N5817F KSAN-KBUR
Flight info
| Callsign | N5817F |
|---|---|
| Flight time | 0h 36m |
| Altitude | 11000 |
| Route | CWARD2 LAX SILEX |
| Aircraft | TBM8/L-SDFGRWY/S |
Departure
| Time | 2026-04-26 15:11 |
|---|---|
| Airport | San Diego International Airport (KSAN) |
Arrival
| Time | 2026-04-26 15:47 |
|---|---|
| Airport | Hollywood Burbank/Bob Hope Airport (KBUR) |
| Time | Latitude | Longitude | Altitude | Speed | Heading |
|---|---|---|---|---|---|
| 2026-04-26 14:52 | 32.73352 | -117.17866 | 16 ft | 0 kts | 18° |
| 2026-04-26 15:07 | 32.73371 | -117.17896 | 15 ft | 10 kts | 256° |
| 2026-04-26 15:07 | 32.73357 | -117.17926 | 16 ft | 3 kts | 233° |
| 2026-04-26 15:07 | 32.73328 | -117.17956 | 17 ft | 10 kts | 199° |
| 2026-04-26 15:08 | 32.73247 | -117.17965 | 15 ft | 13 kts | 143° |
| 2026-04-26 15:08 | 32.73209 | -117.17876 | 14 ft | 12 kts | 109° |
| 2026-04-26 15:08 | 32.73187 | -117.17792 | 15 ft | 10 kts | 105° |
| 2026-04-26 15:08 | 32.73169 | -117.17717 | 15 ft | 10 kts | 108° |
| 2026-04-26 15:09 | 32.73145 | -117.17624 | 14 ft | 15 kts | 105° |
| 2026-04-26 15:09 | 32.73073 | -117.17534 | 14 ft | 13 kts | 173° |
| 2026-04-26 15:09 | 32.73025 | -117.17595 | 14 ft | 10 kts | 284° |
| 2026-04-26 15:09 | 32.73026 | -117.17599 | 14 ft | 0 kts | 285° |
| 2026-04-26 15:10 | 32.73028 | -117.17607 | 14 ft | 9 kts | 284° |
| 2026-04-26 15:10 | 32.73103 | -117.17915 | 12 ft | 68 kts | 286° |
| 2026-04-26 15:11 | 32.73276 | -117.18628 | 86 ft | 106 kts | 285° |
| 2026-04-26 15:11 | 32.73528 | -117.19527 | 403 ft | 123 kts | 288° |
| 2026-04-26 15:11 | 32.73853 | -117.20552 | 872 ft | 134 kts | 289° |
| 2026-04-26 15:11 | 32.74340 | -117.21471 | 1546 ft | 131 kts | 304° |
| 2026-04-26 15:12 | 32.74845 | -117.22363 | 2110 ft | 130 kts | 300° |
| 2026-04-26 15:12 | 32.75318 | -117.23279 | 2671 ft | 131 kts | 300° |
| 2026-04-26 15:12 | 32.75803 | -117.24197 | 3235 ft | 131 kts | 300° |
| 2026-04-26 15:12 | 32.76297 | -117.25113 | 3784 ft | 132 kts | 300° |
| 2026-04-26 15:13 | 32.76794 | -117.26033 | 4364 ft | 133 kts | 300° |
| 2026-04-26 15:13 | 32.77293 | -117.26950 | 4958 ft | 132 kts | 299° |
| 2026-04-26 15:13 | 32.77795 | -117.27873 | 5510 ft | 133 kts | 299° |
| 2026-04-26 15:13 | 32.78301 | -117.28801 | 6071 ft | 134 kts | 300° |
| 2026-04-26 15:14 | 32.78822 | -117.29733 | 6611 ft | 136 kts | 300° |
| 2026-04-26 15:14 | 32.79349 | -117.30668 | 7138 ft | 137 kts | 298° |
| 2026-04-26 15:14 | 32.79852 | -117.31632 | 7658 ft | 138 kts | 297° |
| 2026-04-26 15:14 | 32.80389 | -117.32584 | 8182 ft | 140 kts | 302° |
| 2026-04-26 15:15 | 32.80987 | -117.33499 | 8736 ft | 141 kts | 303° |
| 2026-04-26 15:15 | 32.81589 | -117.34410 | 9345 ft | 143 kts | 303° |
| 2026-04-26 15:15 | 32.82205 | -117.35348 | 9904 ft | 148 kts | 303° |
| 2026-04-26 15:15 | 32.82902 | -117.36409 | 9982 ft | 177 kts | 305° |
| 2026-04-26 15:16 | 32.83727 | -117.37627 | 10004 ft | 200 kts | 306° |
| 2026-04-26 15:16 | 32.84633 | -117.38967 | 10011 ft | 216 kts | 306° |
| 2026-04-26 15:16 | 32.85591 | -117.40403 | 10032 ft | 227 kts | 306° |
| 2026-04-26 15:16 | 32.86580 | -117.41903 | 10011 ft | 234 kts | 306° |
| 2026-04-26 15:17 | 32.87590 | -117.43451 | 9999 ft | 239 kts | 306° |
| 2026-04-26 15:17 | 32.88275 | -117.44510 | 9992 ft | 240 kts | 305° |
| 2026-04-26 15:17 | 32.89597 | -117.46578 | 9976 ft | 239 kts | 304° |
| 2026-04-26 15:17 | 32.90563 | -117.48186 | 9966 ft | 238 kts | 301° |
| 2026-04-26 15:18 | 32.91485 | -117.49816 | 9959 ft | 238 kts | 302° |
| 2026-04-26 15:18 | 32.92462 | -117.51402 | 9957 ft | 237 kts | 304° |
| 2026-04-26 15:18 | 32.93470 | -117.52959 | 9959 ft | 237 kts | 305° |
| 2026-04-26 15:18 | 32.94486 | -117.54508 | 9957 ft | 237 kts | 305° |
| 2026-04-26 15:19 | 32.95497 | -117.56056 | 9957 ft | 236 kts | 304° |
| 2026-04-26 15:19 | 32.96502 | -117.57606 | 9957 ft | 236 kts | 304° |
| 2026-04-26 15:19 | 32.97501 | -117.59154 | 9952 ft | 236 kts | 304° |
| 2026-04-26 15:19 | 32.98496 | -117.60702 | 9949 ft | 235 kts | 304° |
| 2026-04-26 15:20 | 32.99488 | -117.62248 | 9950 ft | 235 kts | 304° |
| 2026-04-26 15:20 | 33.00480 | -117.63797 | 9953 ft | 235 kts | 304° |
| 2026-04-26 15:20 | 33.01468 | -117.65340 | 9955 ft | 234 kts | 304° |
| 2026-04-26 15:20 | 33.02455 | -117.66881 | 9956 ft | 234 kts | 304° |
| 2026-04-26 15:21 | 33.03441 | -117.68424 | 9953 ft | 234 kts | 304° |
| 2026-04-26 15:21 | 33.04426 | -117.69965 | 9953 ft | 234 kts | 304° |
| 2026-04-26 15:21 | 33.05411 | -117.71507 | 9948 ft | 233 kts | 304° |
| 2026-04-26 15:21 | 33.06454 | -117.72992 | 9946 ft | 234 kts | 310° |
| 2026-04-26 15:22 | 33.07682 | -117.74278 | 9948 ft | 236 kts | 317° |
| 2026-04-26 15:22 | 33.08936 | -117.75531 | 9949 ft | 235 kts | 315° |
| 2026-04-26 15:22 | 33.10168 | -117.76808 | 9954 ft | 235 kts | 315° |
| 2026-04-26 15:22 | 33.11403 | -117.78082 | 9952 ft | 234 kts | 315° |
| 2026-04-26 15:23 | 33.12639 | -117.79348 | 9953 ft | 234 kts | 316° |
| 2026-04-26 15:23 | 33.13875 | -117.80610 | 9952 ft | 234 kts | 316° |
| 2026-04-26 15:23 | 33.15113 | -117.81871 | 9954 ft | 234 kts | 316° |
| 2026-04-26 15:23 | 33.16347 | -117.83129 | 9957 ft | 233 kts | 316° |
| 2026-04-26 15:24 | 33.17503 | -117.84305 | 9955 ft | 233 kts | 316° |
| 2026-04-26 15:24 | 33.18753 | -117.85564 | 9949 ft | 234 kts | 319° |
| 2026-04-26 15:24 | 33.20223 | -117.86438 | 9945 ft | 242 kts | 342° |
| 2026-04-26 15:24 | 33.21930 | -117.86667 | 9950 ft | 245 kts | 347° |
| 2026-04-26 15:25 | 33.23583 | -117.87082 | 9956 ft | 242 kts | 341° |
| 2026-04-26 15:25 | 33.24669 | -117.87410 | 9952 ft | 243 kts | 341° |
| 2026-04-26 15:25 | 33.26873 | -117.88033 | 9955 ft | 244 kts | 342° |
| 2026-04-26 15:25 | 33.28530 | -117.88469 | 9956 ft | 244 kts | 343° |
| 2026-04-26 15:26 | 33.30177 | -117.88889 | 9955 ft | 244 kts | 343° |
| 2026-04-26 15:26 | 33.31839 | -117.89309 | 9956 ft | 244 kts | 343° |
| 2026-04-26 15:26 | 33.33501 | -117.89725 | 9956 ft | 244 kts | 343° |
| 2026-04-26 15:26 | 33.35166 | -117.90136 | 9958 ft | 244 kts | 343° |
| 2026-04-26 15:27 | 33.36809 | -117.90539 | 9955 ft | 244 kts | 343° |
| 2026-04-26 15:27 | 33.38432 | -117.91158 | 9955 ft | 239 kts | 330° |
| 2026-04-26 15:27 | 33.39778 | -117.92239 | 9955 ft | 235 kts | 316° |
| 2026-04-26 15:27 | 33.41040 | -117.93475 | 9955 ft | 235 kts | 317° |
| 2026-04-26 15:28 | 33.42324 | -117.94687 | 9953 ft | 235 kts | 318° |
| 2026-04-26 15:28 | 33.43609 | -117.95891 | 9957 ft | 235 kts | 318° |
| 2026-04-26 15:28 | 33.44892 | -117.97095 | 9959 ft | 234 kts | 318° |
| 2026-04-26 15:28 | 33.46174 | -117.98302 | 9958 ft | 234 kts | 318° |
| 2026-04-26 15:29 | 33.47454 | -117.99510 | 9961 ft | 234 kts | 318° |
| 2026-04-26 15:29 | 33.48730 | -118.00715 | 9959 ft | 234 kts | 318° |
| 2026-04-26 15:29 | 33.51274 | -118.03124 | 9959 ft | 233 kts | 318° |
| 2026-04-26 15:30 | 33.53813 | -118.05531 | 9961 ft | 232 kts | 318° |
| 2026-04-26 15:30 | 33.55081 | -118.06732 | 9966 ft | 232 kts | 318° |
| 2026-04-26 15:30 | 33.56351 | -118.07936 | 9966 ft | 233 kts | 318° |
| 2026-04-26 15:31 | 33.57622 | -118.09141 | 9966 ft | 233 kts | 318° |
| 2026-04-26 15:31 | 33.60158 | -118.11549 | 9950 ft | 232 kts | 318° |
| 2026-04-26 15:31 | 33.61423 | -118.12750 | 9951 ft | 232 kts | 318° |
| 2026-04-26 15:32 | 33.63529 | -118.14751 | 9944 ft | 232 kts | 318° |
| 2026-04-26 15:32 | 33.65201 | -118.16342 | 9944 ft | 231 kts | 318° |
| 2026-04-26 15:32 | 33.66461 | -118.17541 | 9970 ft | 231 kts | 318° |
| 2026-04-26 15:33 | 33.67721 | -118.18741 | 9973 ft | 231 kts | 318° |
| 2026-04-26 15:33 | 33.68979 | -118.19939 | 9978 ft | 231 kts | 318° |
| 2026-04-26 15:33 | 33.70232 | -118.21133 | 9985 ft | 230 kts | 318° |
| 2026-04-26 15:33 | 33.71485 | -118.22329 | 9990 ft | 230 kts | 318° |
| 2026-04-26 15:34 | 33.72741 | -118.23527 | 9989 ft | 231 kts | 319° |
| 2026-04-26 15:34 | 33.74000 | -118.24726 | 9992 ft | 231 kts | 318° |
| 2026-04-26 15:34 | 33.75256 | -118.25924 | 9980 ft | 231 kts | 318° |
| 2026-04-26 15:34 | 33.76511 | -118.27122 | 9972 ft | 230 kts | 319° |
| 2026-04-26 15:35 | 33.77761 | -118.28315 | 9972 ft | 229 kts | 319° |
| 2026-04-26 15:35 | 33.79007 | -118.29507 | 9971 ft | 228 kts | 319° |
| 2026-04-26 15:35 | 33.80236 | -118.30685 | 9971 ft | 228 kts | 319° |
| 2026-04-26 15:35 | 33.81489 | -118.31883 | 9975 ft | 228 kts | 319° |
| 2026-04-26 15:36 | 33.82727 | -118.33068 | 9971 ft | 228 kts | 319° |
| 2026-04-26 15:36 | 33.83968 | -118.34255 | 9975 ft | 228 kts | 319° |
| 2026-04-26 15:36 | 33.85205 | -118.35439 | 9979 ft | 227 kts | 319° |
| 2026-04-26 15:36 | 33.86440 | -118.36624 | 9992 ft | 227 kts | 319° |
| 2026-04-26 15:37 | 33.87678 | -118.37810 | 9985 ft | 228 kts | 319° |
| 2026-04-26 15:37 | 33.88915 | -118.38996 | 9969 ft | 228 kts | 319° |
| 2026-04-26 15:37 | 33.90152 | -118.40181 | 9965 ft | 227 kts | 319° |
| 2026-04-26 15:37 | 33.91383 | -118.41363 | 9972 ft | 226 kts | 319° |
| 2026-04-26 15:38 | 33.92621 | -118.42542 | 9971 ft | 227 kts | 320° |
| 2026-04-26 15:38 | 33.93926 | -118.43611 | 9976 ft | 228 kts | 326° |
| 2026-04-26 15:38 | 33.95333 | -118.44541 | 9830 ft | 235 kts | 328° |
| 2026-04-26 15:38 | 33.96782 | -118.45502 | 9569 ft | 240 kts | 328° |
| 2026-04-26 15:39 | 33.98246 | -118.46486 | 9303 ft | 243 kts | 328° |
| 2026-04-26 15:39 | 33.99734 | -118.47484 | 8992 ft | 246 kts | 328° |
| 2026-04-26 15:39 | 34.01235 | -118.48485 | 8676 ft | 247 kts | 328° |
| 2026-04-26 15:39 | 34.01721 | -118.48810 | 8576 ft | 247 kts | 328° |
| 2026-04-26 15:40 | 34.04237 | -118.50495 | 8053 ft | 247 kts | 328° |
| 2026-04-26 15:40 | 34.05735 | -118.51499 | 7743 ft | 246 kts | 328° |
| 2026-04-26 15:40 | 34.07231 | -118.52504 | 7439 ft | 246 kts | 328° |
| 2026-04-26 15:40 | 34.08723 | -118.53507 | 7128 ft | 245 kts | 328° |
| 2026-04-26 15:41 | 34.10191 | -118.54496 | 6830 ft | 244 kts | 328° |
| 2026-04-26 15:41 | 34.11671 | -118.55489 | 6530 ft | 243 kts | 328° |
| 2026-04-26 15:41 | 34.13151 | -118.56483 | 6245 ft | 242 kts | 328° |
| 2026-04-26 15:41 | 34.14621 | -118.57470 | 5945 ft | 242 kts | 328° |
| 2026-04-26 15:42 | 34.16099 | -118.58427 | 5640 ft | 238 kts | 334° |
| 2026-04-26 15:42 | 34.17609 | -118.58604 | 5294 ft | 210 kts | 9° |
| 2026-04-26 15:42 | 34.18887 | -118.57874 | 4944 ft | 200 kts | 34° |
| 2026-04-26 15:42 | 34.19749 | -118.56603 | 4608 ft | 195 kts | 63° |
| 2026-04-26 15:43 | 34.20028 | -118.55080 | 4475 ft | 177 kts | 89° |
| 2026-04-26 15:43 | 34.19987 | -118.53696 | 4278 ft | 156 kts | 91° |
| 2026-04-26 15:43 | 34.19985 | -118.51234 | 3880 ft | 143 kts | 90° |
| 2026-04-26 15:44 | 34.19990 | -118.49942 | 3709 ft | 164 kts | 90° |
| 2026-04-26 15:44 | 34.19938 | -118.47047 | 3306 ft | 171 kts | 91° |
| 2026-04-26 15:44 | 34.19896 | -118.45736 | 3136 ft | 142 kts | 92° |
| 2026-04-26 15:45 | 34.19886 | -118.43633 | 2715 ft | 120 kts | 90° |
| 2026-04-26 15:45 | 34.19882 | -118.42622 | 2391 ft | 120 kts | 91° |
| 2026-04-26 15:46 | 34.19861 | -118.40687 | 1825 ft | 99 kts | 92° |
| 2026-04-26 15:46 | 34.19855 | -118.39862 | 1571 ft | 105 kts | 90° |
| 2026-04-26 15:46 | 34.19837 | -118.39271 | 1429 ft | 106 kts | 90° |
| 2026-04-26 15:46 | 34.19826 | -118.38698 | 1262 ft | 100 kts | 92° |
| 2026-04-26 15:47 | 34.19805 | -118.37589 | 923 ft | 101 kts | 90° |
| 2026-04-26 15:47 | 34.19780 | -118.36063 | 700 ft | 63 kts | 91° |
| 2026-04-26 15:47 | 34.19789 | -118.35818 | 691 ft | 11 kts | 52° |
| 2026-04-26 15:48 | 34.19870 | -118.35798 | 693 ft | 16 kts | 2° |
| 2026-04-26 15:48 | 34.19929 | -118.35803 | 695 ft | 0 kts | 331° |
| 2026-04-26 15:48 | 34.19940 | -118.35812 | 696 ft | 6 kts | 317° |
| 2026-04-26 15:49 | 34.19964 | -118.35863 | 695 ft | 10 kts | 296° |
| 2026-04-26 15:49 | 34.20030 | -118.35911 | 699 ft | 11 kts | 348° |
| 2026-04-26 15:49 | 34.20045 | -118.35940 | 699 ft | 4 kts | 179° |
| 2026-04-26 15:49 | 34.20016 | -118.35932 | 699 ft | 0 kts | 167° |